Time;durP1;ratioP1;P1;durP2;ratioP2;P2;SDS_P1;SDS_P2;PMS_P1;PMS_P2;Temp;Humidity;BMP_temperature;BMP_pressure;BME280_temperature;BME280_humidity;BME280_pressure;Samples;Min_cycle;Max_cycle;Signal;HPM_P1;HPM_P2
2023/03/08 00:02:24;;;;;;;145.98;82.32;;;;;;;-1.55;100.00;99979.75;5055276;28;20025;-62
2023/03/08 00:04:53;;;;;;;155.05;88.47;;;;;;;-1.49;100.00;99982.66;5054757;28;20121;-63
2023/03/08 00:07:20;;;;;;;159.05;87.18;;;;;;;-1.50;100.00;99972.47;5055516;28;20068;-62
2023/03/08 00:09:45;;;;;;;160.23;88.80;;;;;;;-1.47;100.00;99974.31;5054731;28;20132;-62
2023/03/08 00:12:10;;;;;;;172.60;95.63;;;;;;;-1.44;100.00;99966.94;5055212;28;20425;-62
2023/03/08 00:14:36;;;;;;;158.05;88.10;;;;;;;-1.48;100.00;99973.44;5055359;28;20094;-62
2023/03/08 00:17:01;;;;;;;157.32;89.57;;;;;;;-1.50;100.00;99967.41;5054189;28;20020;-62
2023/03/08 00:19:27;;;;;;;180.02;103.78;;;;;;;-1.47;100.00;99964.19;5055146;28;20468;-62
2023/03/08 00:21:52;;;;;;;159.88;92.00;;;;;;;-1.47;100.00;99975.19;5055299;28;20064;-62
2023/03/08 00:24:18;;;;;;;160.48;92.03;;;;;;;-1.45;100.00;99971.09;5053927;28;20116;-62
2023/03/08 00:26:44;;;;;;;169.55;96.35;;;;;;;-1.46;100.00;99969.34;5055267;28;20021;-62
2023/03/08 00:29:09;;;;;;;174.07;101.25;;;;;;;-1.45;100.00;99966.03;5054605;28;20440;-62
2023/03/08 00:31:34;;;;;;;170.70;94.78;;;;;;;-1.45;100.00;99976.16;5054218;28;20013;-62
2023/03/08 00:34:00;;;;;;;179.23;97.72;;;;;;;-1.45;100.00;99971.09;5054567;28;20029;-62
2023/03/08 00:36:25;;;;;;;176.75;96.32;;;;;;;-1.43;100.00;99974.59;5054865;28;20047;-62
2023/03/08 00:38:51;;;;;;;181.55;99.13;;;;;;;-1.40;100.00;99967.22;5053958;28;20477;-62
2023/03/08 00:41:17;;;;;;;182.73;99.00;;;;;;;-1.39;100.00;99965.56;5054693;28;20025;-62
2023/03/08 00:43:43;;;;;;;179.93;99.57;;;;;;;-1.39;100.00;99963.03;5054814;28;20487;-62
2023/03/08 00:46:09;;;;;;;184.98;101.93;;;;;;;-1.36;100.00;99964.09;5053610;28;20083;-62
2023/03/08 00:48:34;;;;;;;194.18;106.22;;;;;;;-1.34;100.00;99962.53;5054648;28;20028;-62
2023/03/08 00:50:59;;;;;;;187.20;105.60;;;;;;;-1.34;100.00;99960.00;5054063;28;20021;-62
2023/03/08 00:53:25;;;;;;;193.27;105.10;;;;;;;-1.33;100.00;99959.25;5053877;28;20099;-62
2023/03/08 00:55:53;;;;;;;184.35;102.55;;;;;;;-1.35;100.00;99953.22;5054654;28;20112;-62
2023/03/08 00:58:18;;;;;;;189.50;102.90;;;;;;;-1.31;100.00;99955.94;5053391;28;20143;-62
2023/03/08 01:00:44;;;;;;;184.13;102.32;;;;;;;-1.33;100.00;99956.72;5053642;28;20116;-63
2023/03/08 01:03:10;;;;;;;192.55;103.72;;;;;;;-1.30;100.00;99955.13;5053936;28;20024;-62
2023/03/08 01:05:43;;;;;;;199.50;105.97;;;;;;;-1.30;100.00;99952.63;5054123;28;20408;-62
2023/03/08 01:08:11;;;;;;;186.00;102.40;;;;;;;-1.30;100.00;99948.44;5053253;28;20029;-62
2023/03/08 01:10:36;;;;;;;176.27;99.22;;;;;;;-1.27;100.00;99945.25;5054269;28;20484;-62
2023/03/08 01:13:03;;;;;;;199.18;106.72;;;;;;;-1.28;100.00;99948.53;5053066;28;20516;-62
2023/03/08 01:15:29;;;;;;;194.93;105.50;;;;;;;-1.27;100.00;99935.13;5054117;28;20385;-62
2023/03/08 01:17:54;;;;;;;200.20;106.32;;;;;;;-1.23;100.00;99932.00;5053883;28;20472;-62
2023/03/08 01:20:19;;;;;;;201.43;106.75;;;;;;;-1.24;100.00;99932.78;5053224;28;20036;-62
2023/03/08 01:22:45;;;;;;;202.77;106.60;;;;;;;-1.20;100.00;99928.00;5054170;28;20029;-62
2023/03/08 01:25:10;;;;;;;204.60;107.50;;;;;;;-1.22;100.00;99916.91;5053737;28;20094;-62
2023/03/08 01:27:35;;;;;;;210.82;109.07;;;;;;;-1.16;100.00;99918.97;5053260;28;20499;-62
2023/03/08 01:30:01;;;;;;;204.23;106.60;;;;;;;-1.18;100.00;99915.47;5053759;28;20441;-62
2023/03/08 01:32:26;;;;;;;221.85;111.88;;;;;;;-1.13;100.00;99909.03;5053777;28;20025;-62
2023/03/08 01:34:51;;;;;;;219.30;111.55;;;;;;;-1.10;100.00;99900.75;5052879;28;20028;-62
2023/03/08 01:37:17;;;;;;;219.43;110.72;;;;;;;-1.10;100.00;99904.16;5053596;28;20384;-62
2023/03/08 01:39:42;;;;;;;228.15;112.15;;;;;;;-1.07;100.00;99893.34;5053769;28;20025;-62
2023/03/08 01:42:08;;;;;;;212.43;111.57;;;;;;;-1.05;100.00;99884.22;5052661;28;20025;-62
2023/03/08 01:44:56;;;;;;;241.23;114.68;;;;;;;-1.05;100.00;99892.66;5053747;28;20056;-62
2023/03/08 01:47:27;;;;;;;239.05;117.15;;;;;;;-1.03;100.00;99888.56;5053192;28;20029;-62
2023/03/08 01:50:01;;;;;;;252.85;117.28;;;;;;;-1.01;100.00;99888.66;5053029;28;20017;-62
2023/03/08 01:52:32;;;;;;;237.25;115.35;;;;;;;-1.03;100.00;99875.94;5053553;28;20036;-62
2023/03/08 01:55:02;;;;;;;248.90;116.80;;;;;;;-1.01;100.00;99876.91;5052764;28;20028;-62
2023/03/08 01:57:33;;;;;;;245.27;119.47;;;;;;;-0.97;100.00;99879.63;5053124;28;20465;-62
2023/03/08 02:00:14;;;;;;;269.33;121.60;;;;;;;-0.96;100.00;99879.69;5052826;28;20056;-62
2023/03/08 02:02:53;;;;;;;259.75;118.88;;;;;;;-0.94;100.00;99874.72;5052644;28;20040;-62
2023/03/08 02:05:19;;;;;;;289.85;119.93;;;;;;;-0.95;100.00;99873.88;5052619;28;20446;-62
2023/03/08 02:07:44;;;;;;;289.08;120.50;;;;;;;-0.95;100.00;99867.94;5053272;28;20472;-62
2023/03/08 02:10:11;;;;;;;276.00;120.22;;;;;;;-0.91;100.00;99872.41;5051822;28;20036;-62
2023/03/08 02:12:38;;;;;;;296.52;123.18;;;;;;;-0.90;100.00;99862.38;5052983;28;20024;-62
2023/03/08 02:15:08;;;;;;;286.10;121.85;;;;;;;-0.91;100.00;99859.75;5052445;28;20025;-63
2023/03/08 02:17:36;;;;;;;306.02;122.53;;;;;;;-0.89;100.00;99843.88;5052554;28;20035;-62
2023/03/08 02:20:14;;;;;;;;;;;;;;;-0.81;100.00;99845.97;5053104;28;20158;-62
2023/03/08 02:22:42;;;;;;;304.40;121.65;;;;;;;-0.85;100.00;99843.28;5052642;28;19912;-62
2023/03/08 02:25:21;;;;;;;298.10;118.55;;;;;;;-0.84;100.00;99831.50;5051926;28;20384;-62
2023/03/08 02:27:48;;;;;;;319.13;121.63;;;;;;;-0.85;100.00;99827.25;5053035;28;20029;-62
2023/03/08 02:30:16;;;;;;;312.90;122.10;;;;;;;-0.83;100.00;99825.66;5051654;28;20458;-62
2023/03/08 02:32:41;;;;;;;313.40;119.85;;;;;;;-0.81;100.00;99821.56;5052941;28;20148;-62
2023/03/08 02:35:07;;;;;;;326.33;124.55;;;;;;;-0.78;100.00;99826.78;5052477;28;20033;-62
2023/03/08 02:37:32;;;;;;;309.27;117.78;;;;;;;-0.75;100.00;99826.09;5051898;28;20024;-62
2023/03/08 02:39:57;;;;;;;309.95;119.78;;;;;;;-0.72;100.00;99826.28;5052563;28;20021;-63
2023/03/08 02:42:23;;;;;;;304.75;116.82;;;;;;;-0.74;100.00;99816.06;5052799;28;20082;-62
2023/03/08 02:44:48;;;;;;;319.75;118.18;;;;;;;-0.73;100.00;99812.75;5051788;28;20460;-62
2023/03/08 02:47:13;;;;;;;310.33;117.75;;;;;;;-0.71;100.00;99808.66;5052327;28;20035;-62
2023/03/08 02:49:39;;;;;;;307.63;117.78;;;;;;;-0.71;100.00;99811.19;5052583;28;20021;-62
2023/03/08 02:52:04;;;;;;;313.75;117.80;;;;;;;-0.70;100.00;99809.53;5051449;28;20029;-62
2023/03/08 02:54:29;;;;;;;313.60;116.35;;;;;;;-0.68;100.00;99810.50;5052672;28;20602;-62
2023/03/08 02:56:54;;;;;;;314.48;114.93;;;;;;;-0.69;100.00;99807.09;5052372;28;20071;-62
2023/03/08 02:59:20;;;;;;;301.75;115.00;;;;;;;-0.68;100.00;99808.84;5051741;28;20561;-63
2023/03/08 03:01:45;;;;;;;305.77;115.40;;;;;;;-0.65;100.00;99807.28;5052391;28;20021;-62
2023/03/08 03:04:10;;;;;;;330.85;116.15;;;;;;;-0.64;100.00;99809.03;5051804;28;20043;-62
2023/03/08 03:06:36;;;;;;;305.45;116.00;;;;;;;-0.63;100.00;99810.75;5051878;28;20444;-62
2023/03/08 03:09:06;;;;;;;306.02;115.18;;;;;;;-0.62;100.00;99813.41;5052278;28;20545;-63
2023/03/08 03:11:31;;;;;;;313.63;114.75;;;;;;;-0.61;100.00;99796.53;5052254;28;20040;-62
2023/03/08 03:13:58;;;;;;;295.85;113.63;;;;;;;-0.63;100.00;99791.41;5051551;28;20025;-62
2023/03/08 03:16:24;;;;;;;308.00;111.80;;;;;;;-0.62;100.00;99779.59;5052365;28;20029;-62
2023/03/08 03:18:54;;;;;;;293.95;112.55;;;;;;;-0.63;100.00;99780.38;5052063;28;20543;-62
2023/03/08 03:21:20;;;;;;;285.30;109.78;;;;;;;-0.64;100.00;99779.53;5051623;28;20079;-62
2023/03/08 03:23:45;;;;;;;283.35;107.82;;;;;;;-0.62;100.00;99777.06;5055954;28;20033;-62
2023/03/08 03:26:14;;;;;;;287.73;106.80;;;;;;;-0.63;100.00;99777.84;5055816;28;20032;-62
2023/03/08 03:28:39;;;;;;;298.73;108.13;;;;;;;-0.64;100.00;99764.34;5055469;28;20373;-62
2023/03/08 03:31:10;;;;;;;300.92;110.30;;;;;;;-0.61;100.00;99768.69;5055740;28;20036;-62
2023/03/08 03:33:36;;;;;;;286.23;107.80;;;;;;;-0.60;100.00;99756.13;5055053;28;20480;-62
2023/03/08 03:36:02;;;;;;;269.88;102.20;;;;;;;-0.68;100.00;99753.16;5055559;28;20112;-62
2023/03/08 03:38:27;;;;;;;273.52;105.45;;;;;;;-0.60;100.00;99746.00;5056137;28;20021;-62
2023/03/08 03:41:06;;;;;;;271.10;102.13;;;;;;;-0.63;100.00;99734.84;5055205;28;20044;-62
2023/03/08 03:43:32;;;;;;;265.52;101.68;;;;;;;-0.59;100.00;99731.72;5055918;28;20036;-62
2023/03/08 03:45:59;;;;;;;279.52;106.15;;;;;;;-0.62;100.00;99732.41;5055530;28;20021;-62
2023/03/08 03:48:25;;;;;;;274.33;107.78;;;;;;;-0.63;100.00;99735.72;5054846;28;20021;-62
2023/03/08 03:50:58;;;;;;;276.10;101.03;;;;;;;-0.65;100.00;99736.44;5055633;28;20097;-62
2023/03/08 03:53:26;;;;;;;264.05;102.95;;;;;;;-0.68;100.00;99732.06;5055531;28;20388;-62
2023/03/08 03:55:51;;;;;;;265.63;103.00;;;;;;;-0.65;100.00;99733.88;5055031;28;20530;-62
2023/03/08 03:58:16;;;;;;;284.13;104.15;;;;;;;-0.70;100.00;99729.44;5055343;28;20025;-62
2023/03/08 04:00:42;;;;;;;266.92;103.03;;;;;;;-0.70;100.00;99719.34;5055229;28;20059;-62
2023/03/08 04:03:07;;;;;;;265.98;103.93;;;;;;;-0.67;100.00;99716.97;5054577;28;20028;-62
2023/03/08 04:05:33;;;;;;;265.83;105.65;;;;;;;-0.64;100.00;99713.72;5055346;28;20079;-62
2023/03/08 04:07:58;;;;;;;260.17;102.90;;;;;;;-0.64;100.00;99716.25;5054958;28;20028;-62
2023/03/08 04:10:23;;;;;;;276.98;105.20;;;;;;;-0.63;100.00;99707.00;5054903;28;20029;-62
2023/03/08 04:12:49;;;;;;;279.75;105.88;;;;;;;-0.65;100.00;99709.44;5055452;28;20465;-62
2023/03/08 04:15:14;;;;;;;259.75;103.97;;;;;;;-0.64;100.00;99712.88;5054785;28;20041;-62
2023/03/08 04:17:40;;;;;;;281.00;107.45;;;;;;;-0.67;100.00;99703.44;5054590;28;20021;-62
2023/03/08 04:20:06;;;;;;;256.27;106.78;;;;;;;-0.67;100.00;99699.25;5055013;28;20033;-62
2023/03/08 04:22:32;;;;;;;273.08;106.05;;;;;;;-0.69;100.00;99690.69;5054774;28;20087;-62
2023/03/08 04:24:57;;;;;;;258.02;101.85;;;;;;;-0.70;100.00;99683.91;5054090;28;20025;-62
2023/03/08 04:27:22;;;;;;;238.32;101.28;;;;;;;-0.69;100.00;99680.56;5055253;28;20025;-62
2023/03/08 04:29:48;;;;;;;254.13;101.63;;;;;;;-0.70;100.00;99683.00;5054189;28;20163;-62
2023/03/08 04:32:13;;;;;;;251.55;101.53;;;;;;;-0.72;100.00;99674.50;5054630;28;20078;-62
2023/03/08 04:34:38;;;;;;;242.93;97.40;;;;;;;-0.70;100.00;99672.91;5054966;28;20043;-62
2023/03/08 04:37:03;;;;;;;231.20;97.47;;;;;;;-0.71;100.00;99666.97;5053845;28;20036;-62
2023/03/08 04:39:29;;;;;;;88.03;28.40;;;;;;;-0.62;100.00;99668.25;5054990;28;20116;-62
2023/03/08 04:41:54;;;;;;;232.48;94.72;;;;;;;-0.69;100.00;99659.47;5054500;28;20052;-62
2023/03/08 04:44:19;;;;;;;218.60;92.60;;;;;;;-0.72;100.00;99659.31;5053883;28;20040;-63
2023/03/08 04:46:45;;;;;;;214.50;91.57;;;;;;;-0.73;100.00;99660.94;5054576;28;20376;-62
2023/03/08 04:49:10;;;;;;;208.23;90.93;;;;;;;-0.69;100.00;99655.25;5054525;28;20492;-62
2023/03/08 04:51:35;;;;;;;217.15;91.68;;;;;;;-0.73;100.00;99648.28;5053900;28;20381;-62
2023/03/08 04:54:03;;;;;;;205.80;90.32;;;;;;;-0.72;100.00;99639.94;5054223;28;20029;-62
2023/03/08 04:56:28;;;;;;;78.63;24.63;;;;;;;-0.64;100.00;99647.94;5054328;28;20025;-62
2023/03/08 04:58:53;;;;;;;185.18;83.20;;;;;;;-0.73;100.00;99635.66;5053792;28;20032;-63
2023/03/08 05:01:23;;;;;;;175.85;81.00;;;;;;;-0.74;100.00;99636.44;5054350;28;20052;-62
2023/03/08 05:03:50;;;;;;;167.23;77.13;;;;;;;-0.75;100.00;99617.00;5054037;28;20033;-62
2023/03/08 05:06:16;;;;;;;173.40;74.72;;;;;;;-0.75;100.00;99609.41;5053294;28;20064;-62
2023/03/08 05:08:41;;;;;;;162.20;74.93;;;;;;;-0.76;100.00;99602.59;5054398;28;20024;-62
2023/03/08 05:11:07;;;;;;;176.07;76.65;;;;;;;-0.75;100.00;99611.94;5053689;28;20074;-62
2023/03/08 05:13:35;;;;;;;171.13;75.68;;;;;;;-0.75;100.00;99603.47;5053470;28;20120;-62
2023/03/08 05:16:03;;;;;;;162.82;74.30;;;;;;;-0.74;100.00;99603.53;5053764;28;20025;-62
2023/03/08 05:18:29;;;;;;;;;;;;;;;-0.67;100.00;99603.09;5054242;28;20025;-62
2023/03/08 05:20:59;;;;;;;156.02;71.28;;;;;;;-0.73;100.00;99595.16;5053325;28;19913;-62
2023/03/08 05:23:26;;;;;;;152.98;71.40;;;;;;;-0.72;100.00;99588.47;5054102;28;20028;-62
2023/03/08 05:25:56;;;;;;;158.02;72.20;;;;;;;-0.73;100.00;99584.19;5053692;28;20418;-62
2023/03/08 05:28:23;;;;;;;162.15;72.32;;;;;;;-0.75;100.00;99579.03;5053332;28;20434;-62
2023/03/08 05:30:48;;;;;;;150.18;69.03;;;;;;;-0.74;100.00;99578.22;5053954;28;20040;-62
2023/03/08 05:33:17;;;;;;;150.73;68.40;;;;;;;-0.74;100.00;99572.31;5052769;28;20029;-62
2023/03/08 05:35:42;;;;;;;154.73;68.30;;;;;;;-0.71;100.00;99567.41;5053856;28;20035;-62
2023/03/08 05:38:08;;;;;;;146.85;69.03;;;;;;;-0.72;100.00;99558.09;5053438;28;20032;-62
2023/03/08 05:40:36;;;;;;;149.70;68.20;;;;;;;-0.73;100.00;99551.28;5052830;28;20354;-62
2023/03/08 05:43:01;;;;;;;149.10;68.72;;;;;;;-0.73;100.00;99544.56;5053182;28;20032;-62
2023/03/08 05:45:26;;;;;;;152.23;68.88;;;;;;;-0.73;100.00;99542.03;5052929;28;20017;-62
2023/03/08 05:47:52;;;;;;;137.85;67.82;;;;;;;-0.75;100.00;99541.09;5052589;28;20029;-62
2023/03/08 05:50:17;;;;;;;145.82;66.30;;;;;;;-0.75;100.00;99538.56;5053381;28;20028;-62
2023/03/08 05:52:42;;;;;;;139.57;64.70;;;;;;;-0.75;100.00;99527.56;5053319;28;20102;-62
2023/03/08 05:55:08;;;;;;;138.85;65.15;;;;;;;-0.76;100.00;99525.81;5052523;28;20075;-62
2023/03/08 05:57:33;;;;;;;142.95;66.40;;;;;;;-0.77;100.00;99524.09;5053339;28;20056;-63
2023/03/08 05:59:58;;;;;;;146.90;64.13;;;;;;;-0.80;100.00;99514.69;5052879;28;20024;-62
2023/03/08 06:02:24;;;;;;;138.57;64.95;;;;;;;-0.81;100.00;99510.41;5052826;28;20540;-62
2023/03/08 06:04:49;;;;;;;131.30;61.72;;;;;;;-0.84;100.00;99502.63;5053162;28;20049;-63
2023/03/08 06:07:14;;;;;;;127.88;58.72;;;;;;;-0.87;100.00;99508.41;5052619;28;20028;-63
2023/03/08 06:09:40;;;;;;;120.55;56.47;;;;;;;-0.90;100.00;99508.25;5052678;28;20482;-62
2023/03/08 06:12:05;;;;;;;80.95;42.55;;;;;;;-0.98;100.00;99506.09;5052675;28;20021;-63
2023/03/08 06:14:31;;;;;;;86.63;46.33;;;;;;;-1.01;100.00;99505.16;5052659;28;20055;-62
2023/03/08 06:16:56;;;;;;;84.75;45.85;;;;;;;-1.02;100.00;99498.34;5052270;28;20064;-62
2023/03/08 06:19:21;;;;;;;87.43;44.78;;;;;;;-1.04;100.00;99504.97;5053110;28;20037;-62
2023/03/08 06:21:46;;;;;;;95.22;47.08;;;;;;;-1.07;100.00;99507.34;5052768;28;20029;-63
2023/03/08 06:24:12;;;;;;;95.93;46.65;;;;;;;-1.09;100.00;99503.84;5051934;28;20025;-62
2023/03/08 06:26:37;;;;;;;91.05;44.78;;;;;;;-1.12;100.00;99503.69;5052718;28;20119;-62
2023/03/08 06:29:02;;;;;;;86.22;42.92;;;;;;;-1.13;100.00;99503.63;5052065;28;20028;-62
2023/03/08 06:31:28;;;;;;;84.47;41.00;;;;;;;-1.14;100.00;99500.19;5052218;28;20416;-62
2023/03/08 06:33:53;;;;;;;85.28;41.13;;;;;;;-1.15;100.00;99495.94;5052425;28;20123;-63
2023/03/08 06:36:20;;;;;;;72.45;37.22;;;;;;;-1.18;100.00;99493.25;5052431;28;20037;-62
2023/03/08 06:38:47;;;;;;;69.43;35.72;;;;;;;-1.21;100.00;99495.63;5052191;28;20017;-62
2023/03/08 06:41:13;;;;;;;69.15;33.80;;;;;;;-1.23;100.00;99494.66;5052305;28;20082;-62
2023/03/08 06:43:39;;;;;;;67.78;35.63;;;;;;;-1.25;100.00;99484.47;5051923;28;20028;-62
2023/03/08 06:46:06;;;;;;;75.38;36.15;;;;;;;-1.24;100.00;99483.69;5052451;28;20109;-62
2023/03/08 06:48:33;;;;;;;66.35;35.33;;;;;;;-1.21;100.00;99482.97;5052583;28;20380;-62
2023/03/08 06:50:58;;;;;;;69.67;35.67;;;;;;;-1.24;100.00;99481.16;5051464;28;20012;-62
2023/03/08 06:53:23;;;;;;;71.18;34.28;;;;;;;-1.25;100.00;99483.56;5052467;28;20702;-62
2023/03/08 06:55:49;;;;;;;68.43;34.50;;;;;;;-1.28;100.00;99486.78;5052199;28;20026;-62
2023/03/08 06:58:14;;;;;;;63.58;32.38;;;;;;;-1.30;100.00;99488.38;5054781;28;20102;-62
2023/03/08 07:00:39;;;;;;;68.25;32.67;;;;;;;-1.33;100.00;99496.69;5056594;28;20047;-62
2023/03/08 07:03:05;;;;;;;63.35;31.85;;;;;;;-1.34;100.00;99496.59;5056269;28;20040;-62
2023/03/08 07:05:30;;;;;;;59.83;31.35;;;;;;;-1.35;100.00;99490.66;5055882;28;20037;-62
2023/03/08 07:07:56;;;;;;;58.67;30.30;;;;;;;-1.38;100.00;99490.50;5056209;28;20398;-62
2023/03/08 07:10:21;;;;;;;56.78;28.23;;;;;;;-1.40;100.00;99487.00;5056205;28;20024;-62
2023/03/08 07:12:50;;;;;;;54.65;27.42;;;;;;;-1.42;100.00;99491.13;5056046;28;20056;-62
2023/03/08 07:15:18;;;;;;;19.73;7.40;;;;;;;-1.34;100.00;99479.75;5056159;28;20087;-63
2023/03/08 07:17:45;;;;;;;50.15;24.70;;;;;;;-1.41;100.00;99475.16;5055894;28;20029;-62
2023/03/08 07:20:12;;;;;;;50.35;28.58;;;;;;;-1.42;100.00;99472.53;5055526;28;20025;-62
2023/03/08 07:22:37;;;;;;;49.47;24.90;;;;;;;-1.43;100.00;99464.09;5056264;28;20032;-62
2023/03/08 07:25:03;;;;;;;48.60;25.75;;;;;;;-1.43;100.00;99469.16;5055570;28;20029;-62
2023/03/08 07:27:28;;;;;;;52.05;26.02;;;;;;;-1.42;100.00;99465.84;5055519;28;20033;-62
2023/03/08 07:29:54;;;;;;;56.78;27.98;;;;;;;-1.40;100.00;99454.16;5056124;28;20025;-62
2023/03/08 07:32:19;;;;;;;53.33;27.65;;;;;;;-1.42;100.00;99455.75;5056055;28;20021;-62
2023/03/08 07:34:44;;;;;;;60.67;29.08;;;;;;;-1.39;100.00;99455.03;5055522;28;20033;-62
2023/03/08 07:37:16;;;;;;;54.15;26.95;;;;;;;-1.41;100.00;99452.41;5055610;28;20377;-62
2023/03/08 07:39:41;;;;;;;54.17;28.35;;;;;;;-1.43;100.00;99454.00;5055042;28;20477;-62
2023/03/08 07:42:09;;;;;;;54.83;26.60;;;;;;;-1.42;100.00;99442.22;5055739;28;20033;-62
2023/03/08 07:44:36;;;;;;;50.75;26.08;;;;;;;-1.39;100.00;99445.78;5055899;28;20063;-62
2023/03/08 07:47:01;;;;;;;50.42;26.77;;;;;;;-1.39;100.00;99450.84;5054809;28;20025;-62
2023/03/08 07:49:27;;;;;;;56.00;28.60;;;;;;;-1.40;100.00;99444.03;5055740;28;20116;-62
2023/03/08 07:51:52;;;;;;;59.17;29.42;;;;;;;-1.40;100.00;99440.66;5055434;28;20387;-62
2023/03/08 07:54:17;;;;;;;62.95;30.70;;;;;;;-1.38;100.00;99434.00;5054572;28;20043;-62
2023/03/08 07:56:43;;;;;;;25.92;8.88;;;;;;;-1.30;100.00;99435.31;5055832;28;20017;-62
2023/03/08 07:59:08;;;;;;;65.45;29.75;;;;;;;-1.36;100.00;99428.25;5055048;28;20037;-62
2023/03/08 08:01:33;;;;;;;68.18;33.97;;;;;;;-1.34;100.00;99421.63;5055056;28;20029;-62
2023/03/08 08:03:59;;;;;;;81.45;41.25;;;;;;;-1.35;100.00;99430.00;5055201;28;20039;-62
2023/03/08 08:06:26;;;;;;;68.05;34.63;;;;;;;-1.34;100.00;99428.34;5055028;28;20132;-62
2023/03/08 08:08:51;;;;;;;65.05;31.85;;;;;;;-1.34;100.00;99424.16;5054222;28;20039;-62
2023/03/08 08:11:18;;;;;;;58.88;29.42;;;;;;;-1.33;100.00;99420.84;5054959;28;20482;-62
2023/03/08 08:13:45;;;;;;;58.30;30.50;;;;;;;-1.30;100.00;99420.16;5055059;28;20036;-62
2023/03/08 08:16:11;;;;;;;58.87;30.50;;;;;;;-1.31;100.00;99417.53;5054540;28;20017;-62
2023/03/08 08:18:37;;;;;;;61.00;32.17;;;;;;;-1.29;100.00;99410.88;5055315;28;20017;-63
2023/03/08 08:21:11;;;;;;;65.35;32.83;;;;;;;-1.30;100.00;99411.66;5054689;28;20074;-62
2023/03/08 08:23:38;;;;;;;65.43;31.95;;;;;;;-1.30;100.00;99406.63;5054743;28;20033;-62
2023/03/08 08:26:05;;;;;;;65.63;32.95;;;;;;;-1.30;100.00;99404.09;5054873;28;20028;-62
2023/03/08 08:28:31;;;;;;;61.03;33.05;;;;;;;-1.27;100.00;99409.34;5054905;28;20107;-63
2023/03/08 08:31:00;;;;;;;64.45;33.58;;;;;;;-1.28;100.00;99398.31;5054246;28;20472;-63
2023/03/08 08:33:27;;;;;;;65.28;33.05;;;;;;;-1.29;100.00;99390.66;5054870;28;20044;-63
2023/03/08 08:35:53;;;;;;;59.65;33.08;;;;;;;-1.29;100.00;99391.56;5054566;28;20404;-63
2023/03/08 08:38:18;;;;;;;67.28;34.45;;;;;;;-1.27;100.00;99386.59;5054449;28;20025;-63
2023/03/08 08:40:43;;;;;;;61.03;31.90;;;;;;;-1.29;100.00;99372.97;5055040;28;20036;-63
2023/03/08 08:43:08;;;;;;;55.20;29.65;;;;;;;-1.31;100.00;99372.03;5053695;28;20118;-63
2023/03/08 08:45:34;;;;;;;54.80;29.83;;;;;;;-1.31;100.00;99372.03;5054631;28;20037;-64
2023/03/08 08:47:59;;;;;;;50.80;28.55;;;;;;;-1.33;100.00;99369.41;5054076;28;20025;-63
2023/03/08 08:50:24;;;;;;;47.75;26.30;;;;;;;-1.35;100.00;99376.91;5053901;28;20032;-63
2023/03/08 08:52:49;;;;;;;51.53;28.33;;;;;;;-1.31;100.00;99377.09;5054782;28;20028;-63
2023/03/08 08:55:15;;;;;;;51.17;28.25;;;;;;;-1.34;100.00;99378.66;5053742;28;20033;-63
2023/03/08 08:57:40;;;;;;;54.83;29.35;;;;;;;-1.30;100.00;99388.94;5053963;28;20029;-63
2023/03/08 09:00:09;;;;;;;54.10;30.40;;;;;;;-1.30;100.00;99383.88;5054034;28;20108;-63
2023/03/08 09:02:35;;;;;;;53.95;29.95;;;;;;;-1.30;100.00;99397.41;5054102;28;20033;-63
2023/03/08 09:05:00;;;;;;;50.80;28.17;;;;;;;-1.28;100.00;99394.94;5053114;28;20378;-64
2023/03/08 09:07:26;;;;;;;53.33;30.90;;;;;;;-1.29;100.00;99390.66;5054458;28;20036;-64
2023/03/08 09:09:53;;;;;;;53.47;31.08;;;;;;;-1.29;100.00;99399.16;5054213;28;20028;-64
2023/03/08 09:12:19;;;;;;;50.42;29.63;;;;;;;-1.27;100.00;99394.16;5053594;28;20120;-64
2023/03/08 09:14:45;;;;;;;52.22;29.25;;;;;;;-1.26;100.00;99390.84;5054189;28;20115;-63
2023/03/08 09:17:10;;;;;;;42.90;24.85;;;;;;;-1.31;100.00;99374.56;5053578;28;20071;-63
2023/03/08 09:19:36;;;;;;;41.38;23.40;;;;;;;-1.34;100.00;99353.38;5052574;28;20473;-63
2023/03/08 09:22:01;;;;;;;33.63;19.25;;;;;;;-1.31;100.00;99347.63;5053910;28;20040;-63
2023/03/08 09:24:26;;;;;;;30.27;17.10;;;;;;;-1.33;100.00;99329.84;5053948;28;20056;-63
2023/03/08 09:26:52;;;;;;;29.73;15.85;;;;;;;-1.33;100.00;99329.84;5053546;28;20021;-63
2023/03/08 09:29:17;;;;;;;28.65;16.73;;;;;;;-1.33;100.00;99324.81;5053440;28;20025;-63
2023/03/08 09:31:44;;;;;;;19.98;6.05;;;;;;;-1.21;100.00;99319.50;5053581;28;20027;-62
2023/03/08 09:34:12;;;;;;;29.20;18.55;;;;;;;-1.26;100.00;99315.88;5052775;28;20034;-63
2023/03/08 09:36:38;;;;;;;35.50;20.70;;;;;;;-1.24;100.00;99331.13;5053930;28;20021;-63
2023/03/08 09:39:05;;;;;;;40.25;22.48;;;;;;;-1.24;100.00;99321.00;5053152;28;20025;-63
2023/03/08 09:41:40;;;;;;;44.33;24.50;;;;;;;-1.23;100.00;99308.44;5053175;28;20025;-62
2023/03/08 09:44:17;;;;;;;46.50;25.98;;;;;;;-1.20;100.00;99306.09;5053152;28;20032;-62
2023/03/08 09:47:15;;;;;;;45.17;28.33;;;;;;;-1.12;100.00;99308.13;5052915;28;20036;-62
2023/03/08 09:49:44;;;;;;;37.13;12.20;;;;;;;-1.04;100.00;99309.41;5053581;28;20078;-62
2023/03/08 09:52:23;;;;;;;57.75;35.30;;;;;;;-1.12;100.00;99309.00;5052915;28;20029;-62
2023/03/08 09:54:50;;;;;;;65.97;39.95;;;;;;;-1.14;100.00;99300.47;5052620;28;20406;-62
2023/03/08 09:57:22;;;;;;;70.85;43.20;;;;;;;-1.14;100.00;99310.59;5053275;28;20033;-62
2023/03/08 09:59:53;;;;;;;71.63;41.83;;;;;;;-1.10;100.00;99302.34;5053179;28;20021;-62
2023/03/08 10:02:30;;;;;;;69.88;42.05;;;;;;;-1.07;100.00;99286.47;5052795;28;20059;-62
2023/03/08 10:05:04;;;;;;;69.07;43.60;;;;;;;-1.04;100.00;99274.88;5052769;28;20045;-62
2023/03/08 10:07:38;;;;;;;75.55;46.50;;;;;;;-1.03;100.00;99284.19;5052396;28;20079;-62
2023/03/08 10:10:15;;;;;;;77.80;45.75;;;;;;;-1.01;100.00;99292.75;5052953;28;20028;-62
2023/03/08 10:12:48;;;;;;;83.07;49.35;;;;;;;-0.98;100.00;99291.13;5052984;28;20112;-62
2023/03/08 10:15:16;;;;;;;89.35;51.58;;;;;;;-0.97;100.00;99287.81;5052071;28;20041;-62
2023/03/08 10:17:51;;;;;;;90.90;53.22;;;;;;;-0.94;100.00;99295.53;5052939;28;20052;-62
2023/03/08 10:20:43;;;;;;;92.32;53.00;;;;;;;-0.87;100.00;99292.53;5052566;28;20112;-62
2023/03/08 10:23:16;;;;;;;92.30;54.85;;;;;;;-0.90;100.00;99293.25;5050913;28;20048;-62
2023/03/08 10:25:43;;;;;;;94.50;54.97;;;;;;;-0.90;100.00;99294.94;5053176;28;20070;-63
2023/03/08 10:28:16;;;;;;;93.57;55.42;;;;;;;-0.92;100.00;99297.38;5052859;28;20151;-63
2023/03/08 10:30:57;;;;;;;94.57;54.10;;;;;;;-0.89;100.00;99284.00;5052315;28;20025;-63
2023/03/08 10:33:24;;;;;;;98.55;57.38;;;;;;;-0.86;100.00;99269.00;5052518;28;20407;-63
2023/03/08 10:36:15;;;;;;;90.13;53.90;;;;;;;-0.86;100.00;99281.66;5052337;28;20036;-63
2023/03/08 10:38:41;;;;;;;98.28;54.67;;;;;;;-0.89;100.00;99284.91;5052417;28;20033;-63
2023/03/08 10:41:16;;;;;;;91.43;53.90;;;;;;;-0.88;100.00;99278.16;5052076;28;20418;-64
2023/03/08 10:43:46;;;;;;;88.13;51.53;;;;;;;-0.90;100.00;99265.44;5052223;28;20033;-64
2023/03/08 10:46:16;;;;;;;94.88;55.15;;;;;;;-0.85;100.00;99253.03;5052431;28;20029;-64
2023/03/08 10:48:41;;;;;;;91.50;54.42;;;;;;;-0.82;100.00;99253.19;5052447;28;20128;-64
2023/03/08 10:51:23;;;;;;;54.25;19.77;;;;;;;-0.72;100.00;99257.91;5051699;28;20028;-64
2023/03/08 10:53:58;;;;;;;99.13;57.65;;;;;;;-0.78;100.00;99250.00;5052669;28;20025;-65
2023/03/08 10:56:50;;;;;;;98.18;56.80;;;;;;;-0.71;100.00;99244.47;5052467;28;20171;-64
2023/03/08 10:59:19;;;;;;;91.45;54.33;;;;;;;-0.76;100.00;99252.59;5052070;28;20021;-64
2023/03/08 11:01:51;;;;;;;89.10;54.05;;;;;;;-0.73;100.00;99263.75;5052310;28;20094;-63
2023/03/08 11:04:19;;;;;;;88.50;53.92;;;;;;;-0.68;100.00;99262.31;5051170;28;20018;-63
2023/03/08 11:06:44;;;;;;;;;;;;;;;-0.56;100.00;99276.34;5053112;28;20021;-63